Time;durP1;ratioP1;P1;durP2;ratioP2;P2;SDS_P1;SDS_P2;PMS_P1;PMS_P2;Temp;Humidity;BMP_temperature;BMP_pressure;BME280_temperature;BME280_humidity;BME280_pressure;Samples;Min_cycle;Max_cycle;Signal;HPM_P1;HPM_P2
2021/09/03 00:00:19;;;;;;;10.90;8.90;;;;;;;;;;5024506;28;20613;-80
2021/09/03 00:02:45;;;;;;;11.53;9.80;;;;;;;;;;5022589;28;20168;-80
2021/09/03 00:05:12;;;;;;;15.97;10.00;;;;;;;;;;5024530;28;20949;-80
2021/09/03 00:07:38;;;;;;;13.00;10.03;;;;;;;;;;5038872;28;20180;-80
2021/09/03 00:10:04;;;;;;;10.93;8.97;;;;;;;;;;5023311;28;20408;-80
2021/09/03 00:12:29;;;;;;;13.83;9.90;;;;;;;;;;5023838;28;20265;-80
2021/09/03 00:14:54;;;;;;;12.50;9.63;;;;;;;;;;5039641;28;20430;-80
2021/09/03 00:17:19;;;;;;;12.53;9.93;;;;;;;;;;5023381;28;20230;-80
2021/09/03 00:19:45;;;;;;;13.30;9.80;;;;;;;;;;5023146;28;20235;-80
2021/09/03 00:22:10;;;;;;;10.97;9.10;;;;;;;;;;5019443;28;20200;-80
2021/09/03 00:24:35;;;;;;;10.50;8.63;;;;;;;;;;5022146;28;20211;-80
2021/09/03 00:27:00;;;;;;;10.70;9.60;;;;;;;;;;5021602;28;20176;-80
2021/09/03 00:29:25;;;;;;;13.60;10.33;;;;;;;;;;5022563;28;20239;-80
2021/09/03 00:31:51;;;;;;;12.60;10.27;;;;;;;;;;5021583;28;20180;-80
2021/09/03 00:34:16;;;;;;;14.43;10.57;;;;;;;;;;5023174;28;20576;-80
2021/09/03 00:36:45;;;;;;;12.10;10.00;;;;;;;;;;5022552;28;20173;-80
2021/09/03 00:39:10;;;;;;;11.03;9.60;;;;;;;;;;5022120;28;20183;-80
2021/09/03 00:41:36;;;;;;;14.10;9.83;;;;;;;;;;5023554;28;20408;-80
2021/09/03 00:44:01;;;;;;;12.10;9.23;;;;;;;;;;5024573;28;20248;-80
2021/09/03 00:46:26;;;;;;;16.00;10.40;;;;;;;;;;5025670;28;20250;-80
2021/09/03 00:48:51;;;;;;;13.07;9.93;;;;;;;;;;5025483;28;20169;-80
2021/09/03 00:51:17;;;;;;;11.70;9.87;;;;;;;;;;5041552;28;20220;-80
2021/09/03 00:53:42;;;;;;;11.03;9.53;;;;;;;;;;5026267;28;20182;-80
2021/09/03 00:56:07;;;;;;;12.27;9.87;;;;;;;;;;5025371;28;20223;-80
2021/09/03 00:58:32;;;;;;;11.10;9.80;;;;;;;;;;5024897;28;20265;-80
2021/09/03 01:00:58;;;;;;;14.93;10.33;;;;;;;;;;5025073;28;20653;-81
2021/09/03 01:03:23;;;;;;;13.17;9.80;;;;;;;;;;5023579;28;20192;-80
2021/09/03 01:05:48;;;;;;;12.63;10.40;;;;;;;;;;5019730;28;20204;-80
2021/09/03 01:08:14;;;;;;;14.10;11.00;;;;;;;;;;5022125;28;20527;-80
2021/09/03 01:10:39;;;;;;;12.77;10.23;;;;;;;;;;5023209;28;20191;-80
2021/09/03 01:13:05;;;;;;;11.23;9.53;;;;;;;;;;5023209;28;20180;-80
2021/09/03 01:15:30;;;;;;;14.57;10.13;;;;;;;;;;5023130;28;20731;-80
2021/09/03 01:17:55;;;;;;;12.97;9.30;;;;;;;;;;5023199;28;20417;-80
2021/09/03 01:20:21;;;;;;;10.40;8.93;;;;;;;;;;5023508;28;20199;-80
2021/09/03 01:22:46;;;;;;;10.77;8.70;;;;;;;;;;5023113;28;20172;-80
2021/09/03 01:25:12;;;;;;;12.30;9.40;;;;;;;;;;5021625;28;20203;-80
2021/09/03 01:27:38;;;;;;;11.57;9.17;;;;;;;;;;5023265;28;20173;-80
2021/09/03 01:30:04;;;;;;;12.10;8.83;;;;;;;;;;5022532;28;20180;-80
2021/09/03 01:32:30;;;;;;;11.63;8.43;;;;;;;;;;5023150;28;20900;-80
2021/09/03 01:34:55;;;;;;;10.77;8.37;;;;;;;;;;5022493;28;20497;-80
2021/09/03 01:37:20;;;;;;;9.27;7.80;;;;;;;;;;5023883;28;20273;-80
2021/09/03 01:39:45;;;;;;;10.63;7.93;;;;;;;;;;5023489;28;20572;-80
2021/09/03 01:42:13;;;;;;;9.37;7.80;;;;;;;;;;5025740;28;20200;-80
2021/09/03 01:44:38;;;;;;;9.87;7.47;;;;;;;;;;5026152;28;20279;-80
2021/09/03 01:47:03;;;;;;;9.57;7.50;;;;;;;;;;5026103;28;20816;-80
2021/09/03 01:49:29;;;;;;;8.30;6.90;;;;;;;;;;5026864;28;20176;-80
2021/09/03 01:51:54;;;;;;;9.37;7.70;;;;;;;;;;5028312;28;20173;-80
2021/09/03 01:54:19;;;;;;;10.87;7.67;;;;;;;;;;5026629;28;20744;-80
2021/09/03 01:56:44;;;;;;;9.30;7.60;;;;;;;;;;5027596;28;20179;-80
2021/09/03 01:59:10;;;;;;;11.70;7.97;;;;;;;;;;5026193;28;20176;-80
2021/09/03 02:01:35;;;;;;;14.50;8.17;;;;;;;;;;5025887;28;20169;-80
2021/09/03 02:04:00;;;;;;;8.70;7.13;;;;;;;;;;5026770;28;20165;-80
2021/09/03 02:06:25;;;;;;;9.93;8.10;;;;;;;;;;5026218;28;20208;-80
2021/09/03 02:08:51;;;;;;;7.30;6.40;;;;;;;;;;5025053;28;20184;-80
2021/09/03 02:11:17;;;;;;;9.30;7.43;;;;;;;;;;5024653;28;20195;-80
2021/09/03 02:13:42;;;;;;;12.07;7.97;;;;;;;;;;5024970;28;20538;-80
2021/09/03 02:16:07;;;;;;;11.23;7.50;;;;;;;;;;5026655;28;20427;-80
2021/09/03 02:18:33;;;;;;;9.30;8.13;;;;;;;;;;5024520;28;20542;-80
2021/09/03 02:20:58;;;;;;;12.63;7.43;;;;;;;;;;5024496;28;20327;-80
2021/09/03 02:23:23;;;;;;;10.03;7.83;;;;;;;;;;5025913;28;20180;-80
2021/09/03 02:25:49;;;;;;;10.50;8.70;;;;;;;;;;5025225;28;20209;-80
2021/09/03 02:28:15;;;;;;;11.90;7.90;;;;;;;;;;5021084;28;20834;-80
2021/09/03 02:30:40;;;;;;;10.70;7.80;;;;;;;;;;5023704;28;20259;-80
2021/09/03 02:33:06;;;;;;;9.50;7.90;;;;;;;;;;5025237;28;20448;-80
2021/09/03 02:35:31;;;;;;;10.57;7.90;;;;;;;;;;5025882;28;20252;-80
2021/09/03 02:37:57;;;;;;;9.33;8.10;;;;;;;;;;5041018;28;20203;-80
2021/09/03 02:40:23;;;;;;;9.53;8.37;;;;;;;;;;5024752;28;20197;-80
2021/09/03 02:42:48;;;;;;;10.80;8.70;;;;;;;;;;5024183;28;20188;-80
2021/09/03 02:45:13;;;;;;;10.70;7.73;;;;;;;;;;5024865;28;20466;-80
2021/09/03 02:47:38;;;;;;;12.43;8.07;;;;;;;;;;5024502;28;20583;-80
2021/09/03 02:50:04;;;;;;;12.53;8.57;;;;;;;;;;5024579;28;20184;-80
2021/09/03 02:52:29;;;;;;;11.00;8.53;;;;;;;;;;5025283;28;20173;-80
2021/09/03 02:54:54;;;;;;;10.23;8.17;;;;;;;;;;5023899;28;20918;-80
2021/09/03 02:57:20;;;;;;;9.80;7.87;;;;;;;;;;5026062;28;20180;-80
2021/09/03 02:59:45;;;;;;;9.57;7.40;;;;;;;;;;5026636;28;20201;-80
2021/09/03 03:02:10;;;;;;;10.40;7.87;;;;;;;;;;5028530;28;20172;-80
2021/09/03 03:04:35;;;;;;;11.73;8.80;;;;;;;;;;5025004;28;20196;-80
2021/09/03 03:07:01;;;;;;;9.30;7.27;;;;;;;;;;5024630;28;20674;-80
2021/09/03 03:09:26;;;;;;;12.83;8.07;;;;;;;;;;5028841;28;20181;-80
2021/09/03 03:11:51;;;;;;;9.77;7.60;;;;;;;;;;5042130;28;20181;-81
2021/09/03 03:14:26;;;;;;;10.30;7.97;;;;;;;;;;5027195;28;20216;-80
2021/09/03 03:16:55;;;;;;;8.00;6.87;;;;;;;;;;5025771;28;20177;-80
2021/09/03 03:19:21;;;;;;;8.50;7.50;;;;;;;;;;5025003;28;20503;-80
2021/09/03 03:21:46;;;;;;;11.17;7.97;;;;;;;;;;5026352;28;20842;-80
2021/09/03 03:24:12;;;;;;;11.83;8.80;;;;;;;;;;5026008;28;20833;-80
2021/09/03 03:26:37;;;;;;;10.57;8.40;;;;;;;;;;5025209;28;20203;-80
2021/09/03 03:29:03;;;;;;;8.27;7.47;;;;;;;;;;5024537;28;20534;-80
2021/09/03 03:31:31;;;;;;;11.13;8.27;;;;;;;;;;5024603;28;20267;-80
2021/09/03 03:33:57;;;;;;;10.63;8.13;;;;;;;;;;5024160;28;20426;-80
2021/09/03 03:36:22;;;;;;;10.40;7.80;;;;;;;;;;5023659;28;20440;-80
2021/09/03 03:38:47;;;;;;;10.93;8.80;;;;;;;;;;5024456;28;20172;-80
2021/09/03 03:41:12;;;;;;;11.70;9.07;;;;;;;;;;5023940;28;20193;-80
2021/09/03 03:43:38;;;;;;;8.20;7.40;;;;;;;;;;5025683;28;20228;-80
2021/09/03 03:46:03;;;;;;;10.93;7.63;;;;;;;;;;5021661;28;20184;-80
2021/09/03 03:48:28;;;;;;;13.10;8.90;;;;;;;;;;5025481;28;20175;-80
2021/09/03 03:50:54;;;;;;;10.83;8.10;;;;;;;;;;5024277;28;20641;-80
2021/09/03 03:53:19;;;;;;;11.53;8.63;;;;;;;;;;5025459;28;20173;-80
2021/09/03 03:55:45;;;;;;;11.73;7.30;;;;;;;;;;5040467;28;20500;-80
2021/09/03 03:58:10;;;;;;;11.00;7.70;;;;;;;;;;5025082;28;20267;-80
2021/09/03 04:00:35;;;;;;;8.73;7.70;;;;;;;;;;5025316;28;20203;-80
2021/09/03 04:03:00;;;;;;;11.50;8.23;;;;;;;;;;5024649;28;20174;-80
2021/09/03 04:05:26;;;;;;;16.30;9.50;;;;;;;;;;5024007;28;20208;-80
2021/09/03 04:07:51;;;;;;;12.40;8.77;;;;;;;;;;5024771;28;20178;-80
2021/09/03 04:10:18;;;;;;;10.50;8.57;;;;;;;;;;5025552;28;20726;-80
2021/09/03 04:12:43;;;;;;;16.60;9.83;;;;;;;;;;5026427;28;20267;-80
2021/09/03 04:15:08;;;;;;;11.40;9.30;;;;;;;;;;5022481;28;20866;-80
2021/09/03 04:17:34;;;;;;;13.67;9.33;;;;;;;;;;5023193;28;20181;-80
2021/09/03 04:20:01;;;;;;;10.67;8.20;;;;;;;;;;5022137;28;20283;-80
2021/09/03 04:22:27;;;;;;;11.43;9.30;;;;;;;;;;5023278;28;20248;-80
2021/09/03 04:24:52;;;;;;;12.97;10.20;;;;;;;;;;5024510;28;21508;-80
2021/09/03 04:27:17;;;;;;;17.57;10.83;;;;;;;;;;5023877;28;20172;-80
2021/09/03 04:29:42;;;;;;;12.33;10.40;;;;;;;;;;5022753;28;20172;-80
2021/09/03 04:32:08;;;;;;;13.30;9.90;;;;;;;;;;5024823;28;20203;-80
2021/09/03 04:34:33;;;;;;;14.77;11.30;;;;;;;;;;5023890;28;20291;-80
2021/09/03 04:36:58;;;;;;;14.17;10.90;;;;;;;;;;5024392;28;20177;-80
2021/09/03 04:39:23;;;;;;;17.37;13.50;;;;;;;;;;5023755;28;20185;-80
2021/09/03 04:41:49;;;;;;;19.13;14.27;;;;;;;;;;5021990;28;20626;-81
2021/09/03 04:44:14;;;;;;;18.83;15.20;;;;;;;;;;5020970;28;20613;-80
2021/09/03 04:46:39;;;;;;;21.33;14.40;;;;;;;;;;5024189;28;20227;-80
2021/09/03 04:49:04;;;;;;;19.03;14.90;;;;;;;;;;5023441;28;20176;-80
2021/09/03 04:51:30;;;;;;;22.20;14.70;;;;;;;;;;5019687;28;20208;-80
2021/09/03 04:53:55;;;;;;;22.33;16.13;;;;;;;;;;5023283;28;20223;-80
2021/09/03 04:56:20;;;;;;;19.13;15.00;;;;;;;;;;5022953;28;20286;-80
2021/09/03 04:58:45;;;;;;;20.70;15.40;;;;;;;;;;5022820;28;20234;-80
2021/09/03 05:01:11;;;;;;;22.10;15.23;;;;;;;;;;5024428;28;20188;-80
2021/09/03 05:03:36;;;;;;;19.67;15.17;;;;;;;;;;5022817;28;20555;-80
2021/09/03 05:06:01;;;;;;;19.33;15.00;;;;;;;;;;5022241;28;20353;-80
2021/09/03 05:08:26;;;;;;;22.97;15.40;;;;;;;;;;5024185;28;20183;-80
2021/09/03 05:10:52;;;;;;;18.50;13.80;;;;;;;;;;5023130;28;20173;-80
2021/09/03 05:13:17;;;;;;;19.20;15.23;;;;;;;;;;5023206;28;20172;-80
2021/09/03 05:15:43;;;;;;;23.63;16.00;;;;;;;;;;5022742;28;20192;-80
2021/09/03 05:18:08;;;;;;;20.73;15.67;;;;;;;;;;5023715;28;20177;-80
2021/09/03 05:20:34;;;;;;;20.60;15.30;;;;;;;;;;5024239;28;20481;-80
2021/09/03 05:22:59;;;;;;;18.37;15.00;;;;;;;;;;5023989;28;20169;-80
2021/09/03 05:25:24;;;;;;;23.03;15.07;;;;;;;;;;5022489;28;20636;-80
2021/09/03 05:27:50;;;;;;;20.03;14.83;;;;;;;;;;5021295;28;20188;-80
2021/09/03 05:30:15;;;;;;;23.47;14.80;;;;;;;;;;5020465;28;20269;-80
2021/09/03 05:32:40;;;;;;;24.13;16.70;;;;;;;;;;5022783;28;20549;-80
2021/09/03 05:35:06;;;;;;;22.13;15.20;;;;;;;;;;5027431;28;20760;-79
2021/09/03 05:37:31;;;;;;;21.30;13.70;;;;;;;;;;5030255;28;20183;-80
2021/09/03 05:39:58;;;;;;;23.03;13.20;;;;;;;;;;5029506;28;20247;-80
2021/09/03 05:42:24;;;;;;;18.13;13.57;;;;;;;;;;5029068;28;20183;-80
2021/09/03 05:44:49;;;;;;;25.73;13.53;;;;;;;;;;5027870;28;20825;-80
2021/09/03 05:47:14;;;;;;;18.47;14.10;;;;;;;;;;5027710;28;20172;-80
2021/09/03 05:49:39;;;;;;;18.40;13.40;;;;;;;;;;5025863;28;20180;-80
2021/09/03 05:52:05;;;;;;;17.80;12.70;;;;;;;;;;5032914;28;20240;-80
2021/09/03 05:54:30;;;;;;;19.40;13.07;;;;;;;;;;5025956;28;20201;-80
2021/09/03 05:56:55;;;;;;;21.43;14.07;;;;;;;;;;5025401;28;20395;-80
2021/09/03 05:59:21;;;;;;;21.33;14.10;;;;;;;;;;5024315;28;20170;-80
2021/09/03 06:01:46;;;;;;;22.57;15.03;;;;;;;;;;5022342;28;20188;-80
2021/09/03 06:04:12;;;;;;;22.17;13.87;;;;;;;;;;5021336;28;20179;-79
2021/09/03 06:06:37;;;;;;;18.77;13.27;;;;;;;;;;5021641;28;20184;-80
2021/09/03 06:09:02;;;;;;;18.40;13.67;;;;;;;;;;5023687;28;20176;-80
2021/09/03 06:11:27;;;;;;;23.53;13.73;;;;;;;;;;5021601;28;20264;-80
2021/09/03 06:13:54;;;;;;;17.60;11.70;;;;;;;;;;5023954;28;20210;-80
2021/09/03 06:16:23;;;;;;;19.10;12.40;;;;;;;;;;5022793;28;20452;-80
2021/09/03 06:18:48;;;;;;;18.27;12.30;;;;;;;;;;5023469;28;20625;-80
2021/09/03 06:21:14;;;;;;;17.13;12.90;;;;;;;;;;5022925;28;20473;-80
2021/09/03 06:23:39;;;;;;;18.03;12.53;;;;;;;;;;5023908;28;20180;-80
2021/09/03 06:26:04;;;;;;;17.43;11.87;;;;;;;;;;5021376;28;20212;-80
2021/09/03 06:28:29;;;;;;;18.77;11.40;;;;;;;;;;5027020;28;20183;-80
2021/09/03 06:30:55;;;;;;;16.67;11.90;;;;;;;;;;5027740;28;20172;-80
2021/09/03 06:33:20;;;;;;;20.97;12.33;;;;;;;;;;5028252;28;20267;-80
2021/09/03 06:35:45;;;;;;;17.17;11.97;;;;;;;;;;5027234;28;20665;-80
2021/09/03 06:38:10;;;;;;;15.67;11.70;;;;;;;;;;5028305;28;20661;-80
2021/09/03 06:40:36;;;;;;;13.70;11.30;;;;;;;;;;5027284;28;20207;-80
2021/09/03 06:43:01;;;;;;;17.90;11.30;;;;;;;;;;5027747;28;21045;-80
2021/09/03 06:45:26;;;;;;;26.23;12.67;;;;;;;;;;5026284;28;20197;-80
2021/09/03 06:47:51;;;;;;;21.93;12.63;;;;;;;;;;5024338;28;20270;-80
2021/09/03 06:50:18;;;;;;;16.03;11.17;;;;;;;;;;5024519;28;20180;-80
2021/09/03 06:52:43;;;;;;;19.03;12.40;;;;;;;;;;5028889;28;20176;-80
2021/09/03 06:55:11;;;;;;;19.60;12.20;;;;;;;;;;5024918;28;20510;-80
2021/09/03 06:57:38;;;;;;;18.47;11.93;;;;;;;;;;5027680;28;20176;-80
2021/09/03 07:00:04;;;;;;;18.70;11.80;;;;;;;;;;5026933;28;21126;-80
2021/09/03 07:02:29;;;;;;;13.40;10.23;;;;;;;;;;5030270;28;20407;-80
2021/09/03 07:04:54;;;;;;;18.03;10.13;;;;;;;;;;5028118;28;20231;-80
2021/09/03 07:07:20;;;;;;;16.00;10.70;;;;;;;;;;5029075;28;20199;-80
2021/09/03 07:09:45;;;;;;;14.40;10.50;;;;;;;;;;5027452;28;20188;-80
2021/09/03 07:12:10;;;;;;;17.70;10.47;;;;;;;;;;5021127;28;20270;-80
2021/09/03 07:14:35;;;;;;;14.30;9.67;;;;;;;;;;5025910;28;20193;-80
2021/09/03 07:17:01;;;;;;;14.00;9.50;;;;;;;;;;5025283;28;20662;-80
2021/09/03 07:19:26;;;;;;;15.10;9.10;;;;;;;;;;5025413;28;20188;-80
2021/09/03 07:21:51;;;;;;;14.43;9.47;;;;;;;;;;5026112;28;20871;-80
2021/09/03 07:24:16;;;;;;;13.47;8.43;;;;;;;;;;5023335;28;20201;-80
2021/09/03 07:26:42;;;;;;;15.37;8.80;;;;;;;;;;5025749;28;20537;-80
2021/09/03 07:29:07;;;;;;;16.13;9.53;;;;;;;;;;5024464;28;20179;-80
2021/09/03 07:31:33;;;;;;;12.63;7.57;;;;;;;;;;5025011;28;20188;-80
2021/09/03 07:33:58;;;;;;;15.07;7.50;;;;;;;;;;5024467;28;20667;-80
2021/09/03 07:36:23;;;;;;;14.80;7.60;;;;;;;;;;5022637;28;20672;-80
2021/09/03 07:38:49;;;;;;;11.30;6.50;;;;;;;;;;5024501;28;20180;-80
2021/09/03 07:41:14;;;;;;;11.63;6.87;;;;;;;;;;5021668;28;20254;-80
2021/09/03 07:43:39;;;;;;;11.77;7.10;;;;;;;;;;5025056;28;20543;-80
2021/09/03 07:46:05;;;;;;;8.73;5.60;;;;;;;;;;5024095;28;20200;-80
2021/09/03 07:48:30;;;;;;;10.60;6.10;;;;;;;;;;5038272;28;20175;-80
2021/09/03 07:50:55;;;;;;;8.23;5.90;;;;;;;;;;5029638;28;20652;-80
2021/09/03 07:53:20;;;;;;;8.30;5.43;;;;;;;;;;5029728;28;20246;-80
2021/09/03 07:55:46;;;;;;;12.77;6.33;;;;;;;;;;5045607;28;20770;-80
2021/09/03 07:58:11;;;;;;;11.63;6.30;;;;;;;;;;5029125;28;20172;-80
2021/09/03 08:00:36;;;;;;;10.33;6.57;;;;;;;;;;5027511;28;20208;-80
2021/09/03 08:03:02;;;;;;;9.90;5.60;;;;;;;;;;5027247;28;20633;-80
2021/09/03 08:05:28;;;;;;;12.00;6.80;;;;;;;;;;5026660;28;20200;-80
2021/09/03 08:07:53;;;;;;;10.90;7.33;;;;;;;;;;5027266;28;20188;-80
2021/09/03 08:10:18;;;;;;;9.43;5.77;;;;;;;;;;5025818;28;20204;-80
2021/09/03 08:12:44;;;;;;;11.83;7.57;;;;;;;;;;5024663;28;20181;-80
2021/09/03 08:15:10;;;;;;;10.10;7.43;;;;;;;;;;5022442;28;20225;-80
2021/09/03 08:17:35;;;;;;;8.57;6.93;;;;;;;;;;5023636;28;20212;-80
2021/09/03 08:20:01;;;;;;;10.23;7.00;;;;;;;;;;5025080;28;21026;-80
2021/09/03 08:22:26;;;;;;;11.63;7.63;;;;;;;;;;5026196;28;20175;-80
2021/09/03 08:24:51;;;;;;;10.10;7.53;;;;;;;;;;5026751;28;20200;-80
2021/09/03 08:27:17;;;;;;;13.93;8.40;;;;;;;;;;5026389;28;20645;-80
2021/09/03 08:29:43;;;;;;;11.20;8.57;;;;;;;;;;5026550;28;20180;-80
2021/09/03 08:32:09;;;;;;;12.90;9.17;;;;;;;;;;5025472;28;20263;-80
2021/09/03 08:34:34;;;;;;;12.27;8.50;;;;;;;;;;5025519;28;20462;-80
2021/09/03 08:36:59;;;;;;;12.23;7.80;;;;;;;;;;5025385;28;20260;-80
2021/09/03 08:39:24;;;;;;;11.87;7.83;;;;;;;;;;5025561;28;20172;-80
2021/09/03 08:41:51;;;;;;;10.93;7.90;;;;;;;;;;5024850;28;20178;-80
2021/09/03 08:44:17;;;;;;;9.60;7.40;;;;;;;;;;5026391;28;20200;-80
2021/09/03 08:46:42;;;;;;;12.70;7.40;;;;;;;;;;5025176;28;20419;-80
2021/09/03 08:49:07;;;;;;;8.30;6.30;;;;;;;;;;5025391;28;20271;-80
2021/09/03 08:51:33;;;;;;;12.93;7.37;;;;;;;;;;5026133;28;20288;-80
2021/09/03 08:53:58;;;;;;;10.50;6.10;;;;;;;;;;5023991;28;20185;-80
2021/09/03 08:56:23;;;;;;;9.30;6.03;;;;;;;;;;5022909;28;20698;-80
2021/09/03 08:58:49;;;;;;;8.20;5.47;;;;;;;;;;5019857;28;20247;-80
2021/09/03 09:01:15;;;;;;;7.97;5.03;;;;;;;;;;5037166;28;20201;-80
2021/09/03 09:03:42;;;;;;;7.00;4.23;;;;;;;;;;5023415;28;20173;-80
2021/09/03 09:06:08;;;;;;;8.67;4.90;;;;;;;;;;5023773;28;20445;-80
2021/09/03 09:08:33;;;;;;;11.90;6.07;;;;;;;;;;5039477;28;20423;-79
2021/09/03 09:11:00;;;;;;;9.50;5.70;;;;;;;;;;5024221;28;20176;-79
2021/09/03 09:13:27;;;;;;;10.93;5.47;;;;;;;;;;5026494;28;20199;-79
2021/09/03 09:16:12;;;;;;;10.50;5.50;;;;;;;;;;5022395;28;20478;-79
2021/09/03 09:18:48;;;;;;;10.77;6.00;;;;;;;;;;5024421;28;20419;-79
2021/09/03 09:21:15;;;;;;;9.67;5.97;;;;;;;;;;5039783;28;20821;-79
2021/09/03 09:23:44;;;;;;;10.07;5.90;;;;;;;;;;5023433;28;20940;-79
2021/09/03 09:26:10;;;;;;;13.20;5.70;;;;;;;;;;5024086;28;20452;-79
2021/09/03 09:28:35;;;;;;;9.77;5.70;;;;;;;;;;5025936;28;20410;-79
2021/09/03 09:31:00;;;;;;;13.37;5.83;;;;;;;;;;5023261;28;20184;-80
2021/09/03 09:33:26;;;;;;;9.07;5.90;;;;;;;;;;5024651;28;20172;-81
2021/09/03 09:35:52;;;;;;;8.67;5.60;;;;;;;;;;5024608;28;20195;-80
2021/09/03 09:38:19;;;;;;;9.57;5.50;;;;;;;;;;5022099;28;20181;-80
2021/09/03 09:40:48;;;;;;;11.27;5.90;;;;;;;;;;5022226;28;20462;-79
2021/09/03 09:43:29;;;;;;;11.47;6.67;;;;;;;;;;5022224;28;20408;-80
2021/09/03 09:46:16;;;;;;;14.30;6.30;;;;;;;;;;5023974;28;21350;-80
2021/09/03 09:48:54;;;;;;;13.27;7.60;;;;;;;;;;5025329;28;20415;-80
2021/09/03 09:51:19;;;;;;;13.57;7.27;;;;;;;;;;5025721;28;20402;-80
2021/09/03 09:53:52;;;;;;;9.83;6.70;;;;;;;;;;5024087;28;20416;-80
2021/09/03 09:56:17;;;;;;;13.27;7.87;;;;;;;;;;5038602;28;20199;-80
2021/09/03 09:58:43;;;;;;;9.93;7.07;;;;;;;;;;5024376;28;20435;-79
2021/09/03 10:01:08;;;;;;;13.40;6.60;;;;;;;;;;5024716;28;20232;-80
2021/09/03 10:03:33;;;;;;;10.60;6.63;;;;;;;;;;5027223;28;20260;-80
2021/09/03 10:06:01;;;;;;;10.97;7.10;;;;;;;;;;5030389;28;20204;-80
2021/09/03 10:08:27;;;;;;;12.00;7.87;;;;;;;;;;5029574;28;20169;-80
2021/09/03 10:10:52;;;;;;;12.33;7.10;;;;;;;;;;5030281;28;20790;-80
2021/09/03 10:13:17;;;;;;;12.13;6.30;;;;;;;;;;5030429;28;20222;-80
2021/09/03 10:15:43;;;;;;;12.17;6.70;;;;;;;;;;5030081;28;20211;-79
2021/09/03 10:18:08;;;;;;;11.07;7.03;;;;;;;;;;5027897;28;20641;-80
2021/09/03 10:20:33;;;;;;;9.43;6.83;;;;;;;;;;5030533;28;21313;-80
2021/09/03 10:22:58;;;;;;;11.70;7.10;;;;;;;;;;5028936;28;20172;-80
2021/09/03 10:25:24;;;;;;;12.17;7.87;;;;;;;;;;5026209;28;20209;-80
2021/09/03 10:28:18;;;;;;;14.90;8.03;;;;;;;;;;5029098;28;20207;-80
2021/09/03 10:31:02;;;;;;;10.50;7.87;;;;;;;;;;5028594;28;20656;-80
2021/09/03 10:33:33;;;;;;;14.60;7.03;;;;;;;;;;5029527;28;20411;-80
2021/09/03 10:35:58;;;;;;;8.53;6.80;;;;;;;;;;5027930;28;20518;-81
2021/09/03 10:38:30;;;;;;;13.37;7.20;;;;;;;;;;5030067;28;20443;-80
2021/09/03 10:40:56;;;;;;;9.13;7.07;;;;;;;;;;5043431;28;20646;-80
2021/09/03 10:43:40;;;;;;;11.07;7.33;;;;;;;;;;5028228;28;20432;-80
2021/09/03 10:46:09;;;;;;;10.97;7.60;;;;;;;;;;5028435;28;20188;-80
2021/09/03 10:48:34;;;;;;;10.73;6.97;;;;;;;;;;5043764;28;20423;-80
2021/09/03 10:51:00;;;;;;;11.03;7.57;;;;;;;;;;5027172;28;20965;-79
2021/09/03 10:53:27;;;;;;;9.63;8.20;;;;;;;;;;5029009;28;20177;-79
2021/09/03 10:56:10;;;;;;;10.07;7.70;;;;;;;;;;5023087;28;20240;-79
2021/09/03 10:58:52;;;;;;;11.20;7.60;;;;;;;;;;5026011;28;20458;-79
2021/09/03 11:01:17;;;;;;;11.97;8.63;;;;;;;;;;5030368;28;20450;-79
2021/09/03 11:03:45;;;;;;;13.07;7.77;;;;;;;;;;5028486;28;20438;-79
2021/09/03 11:06:14;;;;;;;10.13;7.27;;;;;;;;;;5027929;28;20185;-79
2021/09/03 11:08:39;;;;;;;13.47;8.27;;;;;;;;;;5027526;28;20412;-79
2021/09/03 11:11:20;;;;;;;13.70;8.30;;;;;;;;;;5028411;28;20434;-79
2021/09/03 11:13:48;;;;;;;14.10;9.40;;;;;;;;;;5027501;28;20608;-79
2021/09/03 11:16:31;;;;;;;10.77;7.63;;;;;;;;;;5027128;28;20533;-79
2021/09/03 11:19:13;;;;;;;9.37;7.90;;;;;;;;;;5028203;28;20412;-79
2021/09/03 11:21:44;;;;;;;11.20;7.90;;;;;;;;;;5027880;28;20463;-79
2021/09/03 11:24:11;;;;;;;11.30;8.70;;;;;;;;;;5028693;28;20407;-79
2021/09/03 11:26:38;;;;;;;13.20;8.50;;;;;;;;;;5027020;28;20439;-79
2021/09/03 11:29:05;;;;;;;12.73;8.70;;;;;;;;;;5041097;28;20904;-79
2021/09/03 11:31:31;;;;;;;11.70;7.93;;;;;;;;;;5027029;28;20412;-79
2021/09/03 11:33:59;;;;;;;15.23;8.90;;;;;;;;;;5025858;28;20492;-79
2021/09/03 11:36:24;;;;;;;10.43;8.30;;;;;;;;;;5026867;28;20403;-79
2021/09/03 11:38:53;;;;;;;11.23;8.07;;;;;;;;;;5028716;28;20419;-79
2021/09/03 11:41:19;;;;;;;11.53;7.60;;;;;;;;;;5027601;28;20277;-80
2021/09/03 11:43:44;;;;;;;15.27;9.57;;;;;;;;;;5027035;28;20506;-79
2021/09/03 11:46:16;;;;;;;10.80;7.90;;;;;;;;;;5027213;28;20207;-79
2021/09/03 11:48:43;;;;;;;13.53;8.47;;;;;;;;;;5026786;28;20752;-79
2021/09/03 11:51:14;;;;;;;12.37;8.33;;;;;;;;;;5026833;28;20403;-79
2021/09/03 11:53:39;;;;;;;12.83;8.60;;;;;;;;;;5026664;28;20400;-79
2021/09/03 11:56:10;;;;;;;10.27;8.70;;;;;;;;;;5025989;28;20441;-79
2021/09/03 11:58:35;;;;;;;12.37;9.80;;;;;;;;;;5028771;28;20177;-79
2021/09/03 12:01:00;;;;;;;13.33;9.23;;;;;;;;;;5026196;28;20537;-79
2021/09/03 12:03:29;;;;;;;16.13;9.50;;;;;;;;;;5028192;28;20191;-79
2021/09/03 12:05:55;;;;;;;13.77;9.40;;;;;;;;;;5025781;28;20197;-79
2021/09/03 12:08:23;;;;;;;14.70;9.87;;;;;;;;;;5026833;28;20984;-79
2021/09/03 12:10:54;;;;;;;12.37;8.20;;;;;;;;;;5025552;28;20834;-79
2021/09/03 12:13:20;;;;;;;10.20;8.47;;;;;;;;;;5028079;28;20415;-79
2021/09/03 12:15:47;;;;;;;16.00;9.50;;;;;;;;;;5025081;28;20442;-79
2021/09/03 12:18:19;;;;;;;10.13;7.80;;;;;;;;;;5027706;28;20426;-79
2021/09/03 12:20:53;;;;;;;11.27;8.97;;;;;;;;;;5026542;28;20490;-79
2021/09/03 12:23:18;;;;;;;17.27;9.10;;;;;;;;;;5027361;28;20462;-79
2021/09/03 12:25:43;;;;;;;15.60;9.53;;;;;;;;;;5026408;28;20450;-79
2021/09/03 12:28:10;;;;;;;10.70;8.30;;;;;;;;;;5027693;28;20173;-79
2021/09/03 12:30:36;;;;;;;12.97;9.10;;;;;;;;;;5027233;28;20188;-79
2021/09/03 12:33:21;;;;;;;13.17;10.10;;;;;;;;;;5028609;28;20423;-79
2021/09/03 12:35:47;;;;;;;12.10;9.47;;;;;;;;;;5026612;28;20212;-79
2021/09/03 12:38:12;;;;;;;12.10;9.07;;;;;;;;;;5026987;28;20785;-79
2021/09/03 12:40:37;;;;;;;12.97;8.77;;;;;;;;;;5025622;28;20205;-79
2021/09/03 12:43:02;;;;;;;12.30;8.83;;;;;;;;;;5027973;28;20171;-82
2021/09/03 12:45:44;;;;;;;14.70;9.57;;;;;;;;;;5026205;22;20236;-79
2021/09/03 12:48:09;;;;;;;11.60;8.73;;;;;;;;;;4987070;28;20181;-79
2021/09/03 12:50:35;;;;;;;13.87;9.10;;;;;;;;;;5002946;28;20447;-79
2021/09/03 12:53:00;;;;;;;11.37;8.93;;;;;;;;;;5002986;28;20185;-79
2021/09/03 12:55:25;;;;;;;14.50;8.60;;;;;;;;;;5002295;28;20201;-80
2021/09/03 12:57:50;;;;;;;14.87;9.90;;;;;;;;;;4981587;28;20224;-80
2021/09/03 13:00:16;;;;;;;13.50;10.00;;;;;;;;;;5001967;28;20243;-79
2021/09/03 13:02:41;;;;;;;10.90;8.90;;;;;;;;;;4984209;28;20182;-79
2021/09/03 13:05:08;;;;;;;16.03;9.60;;;;;;;;;;4982362;28;20209;-79
2021/09/03 13:07:34;;;;;;;13.97;9.67;;;;;;;;;;4985126;28;20174;-79
2021/09/03 13:09:59;;;;;;;13.50;9.93;;;;;;;;;;4982592;28;20428;-79
2021/09/03 13:12:24;;;;;;;11.03;9.60;;;;;;;;;;4994871;28;20187;-80
2021/09/03 13:14:49;;;;;;;11.90;9.00;;;;;;;;;;4998133;28;20612;-80
2021/09/03 13:17:16;;;;;;;12.90;8.83;;;;;;;;;;4985170;28;20193;-79
2021/09/03 13:19:42;;;;;;;13.30;10.80;;;;;;;;;;5001240;28;20177;-79
2021/09/03 13:22:07;;;;;;;12.57;10.57;;;;;;;;;;4995125;28;20413;-79
2021/09/03 13:24:32;;;;;;;15.30;10.00;;;;;;;;;;4996709;28;20197;-79
2021/09/03 13:26:57;;;;;;;11.43;9.50;;;;;;;;;;4985677;28;20177;-79
2021/09/03 13:29:23;;;;;;;12.10;9.77;;;;;;;;;;4982540;28;20196;-79
2021/09/03 13:31:48;;;;;;;12.23;9.20;;;;;;;;;;5002299;28;20612;-79
2021/09/03 13:34:13;;;;;;;11.00;9.90;;;;;;;;;;4999371;28;20211;-79
2021/09/03 13:36:38;;;;;;;13.80;9.67;;;;;;;;;;5001094;28;20204;-79
2021/09/03 13:39:05;;;;;;;11.90;9.30;;;;;;;;;;5001548;28;20190;-80
2021/09/03 13:41:30;;;;;;;12.00;10.13;;;;;;;;;;4999239;28;20678;-79
2021/09/03 13:43:56;;;;;;;10.57;9.03;;;;;;;;;;4981779;28;20463;-79
2021/09/03 13:46:22;;;;;;;12.47;10.10;;;;;;;;;;4999536;28;20599;-79
2021/09/03 13:48:47;;;;;;;11.40;9.80;;;;;;;;;;5000347;28;20460;-79
2021/09/03 13:51:13;;;;;;;22.00;11.80;;;;;;;;;;4981504;28;20613;-80
2021/09/03 13:53:38;;;;;;;13.83;9.23;;;;;;;;;;5001729;28;20215;-80
2021/09/03 13:56:04;;;;;;;13.17;10.23;;;;;;;;;;5000191;28;20420;-79
2021/09/03 13:58:29;;;;;;;11.10;8.67;;;;;;;;;;5000692;28;20551;-79
2021/09/03 14:00:55;;;;;;;15.30;10.37;;;;;;;;;;5001750;28;20265;-79
2021/09/03 14:03:20;;;;;;;11.50;9.60;;;;;;;;;;5000059;28;20173;-79
2021/09/03 14:05:45;;;;;;;11.63;9.60;;;;;;;;;;4983290;28;20315;-79
2021/09/03 14:08:11;;;;;;;13.70;9.90;;;;;;;;;;4999709;28;20549;-79
2021/09/03 14:10:36;;;;;;;13.60;9.90;;;;;;;;;;5000761;28;20217;-79
2021/09/03 14:13:02;;;;;;;12.73;9.80;;;;;;;;;;5000686;28;20188;-79
2021/09/03 14:15:28;;;;;;;13.83;9.93;;;;;;;;;;4995851;28;20218;-80
2021/09/03 14:17:53;;;;;;;16.60;9.27;;;;;;;;;;4994564;28;20212;-79
2021/09/03 14:20:22;;;;;;;15.17;10.00;;;;;;;;;;4999945;28;20463;-79
2021/09/03 14:22:47;;;;;;;14.20;9.70;;;;;;;;;;4981272;28;20174;-79